Terminal Aerodrome Forecast
Issued by NWS

Home | Current Version | Previous Version | Text Only | Print | Product List | Glossary On
Versions: 1 2 3 4 5 6 7 8 9 10 11 12 13 14
662
FTUS44 KMAF 251120
TAFPEQ
TAF
KPEQ 251120Z 2512/2612 26011KT P6SM FEW250
     FM251600 25025G35KT P6SM SCT250
     FM260600 29015G23KT P6SM OVC080=

USA.gov is the U.S. government's official web portal to all federal, state and local government web resources and services.